sensor_id;sensor_type;location;lat;lon;timestamp;P1;durP1;ratioP1;P2;durP2;ratioP2
23384;SDS011;11865;45.394;10.978;2023-12-29T00:00:30;72.78;;;40.35;;
23384;SDS011;11865;45.394;10.978;2023-12-29T00:02:57;69.03;;;37.42;;
23384;SDS011;11865;45.394;10.978;2023-12-29T00:05:25;73.82;;;40.00;;
23384;SDS011;11865;45.394;10.978;2023-12-29T00:07:54;73.20;;;38.90;;
23384;SDS011;11865;45.394;10.978;2023-12-29T00:10:22;70.47;;;40.03;;
23384;SDS011;11865;45.394;10.978;2023-12-29T00:12:49;69.47;;;39.58;;
23384;SDS011;11865;45.394;10.978;2023-12-29T00:15:17;61.38;;;37.38;;
23384;SDS011;11865;45.394;10.978;2023-12-29T00:17:45;75.97;;;41.13;;
23384;SDS011;11865;45.394;10.978;2023-12-29T00:20:14;73.70;;;40.67;;
23384;SDS011;11865;45.394;10.978;2023-12-29T00:22:59;69.30;;;36.97;;
23384;SDS011;11865;45.394;10.978;2023-12-29T00:25:27;69.30;;;35.83;;
23384;SDS011;11865;45.394;10.978;2023-12-29T00:27:54;61.33;;;34.50;;
23384;SDS011;11865;45.394;10.978;2023-12-29T00:30:22;66.38;;;33.65;;
23384;SDS011;11865;45.394;10.978;2023-12-29T00:32:58;56.67;;;32.03;;
23384;SDS011;11865;45.394;10.978;2023-12-29T00:35:26;53.83;;;30.90;;
23384;SDS011;11865;45.394;10.978;2023-12-29T00:37:53;65.07;;;32.20;;
23384;SDS011;11865;45.394;10.978;2023-12-29T00:40:21;58.95;;;31.27;;
23384;SDS011;11865;45.394;10.978;2023-12-29T00:42:48;58.95;;;28.73;;
23384;SDS011;11865;45.394;10.978;2023-12-29T00:45:16;58.72;;;28.65;;
23384;SDS011;11865;45.394;10.978;2023-12-29T00:47:44;57.17;;;30.83;;
23384;SDS011;11865;45.394;10.978;2023-12-29T00:50:12;56.72;;;31.38;;
23384;SDS011;11865;45.394;10.978;2023-12-29T00:52:39;54.67;;;30.27;;
23384;SDS011;11865;45.394;10.978;2023-12-29T00:55:07;60.10;;;32.70;;
23384;SDS011;11865;45.394;10.978;2023-12-29T00:57:35;61.92;;;31.38;;
23384;SDS011;11865;45.394;10.978;2023-12-29T01:00:03;61.95;;;33.63;;
23384;SDS011;11865;45.394;10.978;2023-12-29T01:02:32;66.10;;;35.08;;
23384;SDS011;11865;45.394;10.978;2023-12-29T01:05:00;70.07;;;37.20;;
23384;SDS011;11865;45.394;10.978;2023-12-29T01:07:27;72.85;;;36.70;;
23384;SDS011;11865;45.394;10.978;2023-12-29T01:09:55;65.80;;;33.53;;
23384;SDS011;11865;45.394;10.978;2023-12-29T01:12:23;57.88;;;33.22;;
23384;SDS011;11865;45.394;10.978;2023-12-29T01:14:52;56.67;;;31.77;;
23384;SDS011;11865;45.394;10.978;2023-12-29T01:17:19;68.82;;;32.47;;
23384;SDS011;11865;45.394;10.978;2023-12-29T01:19:49;67.22;;;35.35;;
23384;SDS011;11865;45.394;10.978;2023-12-29T01:22:16;66.80;;;35.28;;
23384;SDS011;11865;45.394;10.978;2023-12-29T01:24:44;66.35;;;35.03;;
23384;SDS011;11865;45.394;10.978;2023-12-29T01:27:12;73.68;;;36.13;;
23384;SDS011;11865;45.394;10.978;2023-12-29T01:29:40;63.67;;;33.50;;
23384;SDS011;11865;45.394;10.978;2023-12-29T01:32:07;61.15;;;34.17;;
23384;SDS011;11865;45.394;10.978;2023-12-29T01:34:35;65.57;;;34.20;;
23384;SDS011;11865;45.394;10.978;2023-12-29T01:37:03;76.63;;;35.03;;
23384;SDS011;11865;45.394;10.978;2023-12-29T01:39:32;71.35;;;37.95;;
23384;SDS011;11865;45.394;10.978;2023-12-29T01:42:01;66.57;;;35.03;;
23384;SDS011;11865;45.394;10.978;2023-12-29T01:44:29;71.18;;;36.97;;
23384;SDS011;11865;45.394;10.978;2023-12-29T01:46:59;69.55;;;37.33;;
23384;SDS011;11865;45.394;10.978;2023-12-29T01:49:28;75.70;;;41.40;;
23384;SDS011;11865;45.394;10.978;2023-12-29T01:51:57;78.05;;;41.10;;
23384;SDS011;11865;45.394;10.978;2023-12-29T01:54:30;73.78;;;38.15;;
23384;SDS011;11865;45.394;10.978;2023-12-29T01:57:00;79.85;;;40.50;;
23384;SDS011;11865;45.394;10.978;2023-12-29T01:59:29;77.88;;;39.30;;
23384;SDS011;11865;45.394;10.978;2023-12-29T02:01:59;85.15;;;39.55;;
23384;SDS011;11865;45.394;10.978;2023-12-29T02:04:28;73.03;;;37.03;;
23384;SDS011;11865;45.394;10.978;2023-12-29T02:06:57;68.15;;;37.92;;
23384;SDS011;11865;45.394;10.978;2023-12-29T02:09:25;74.18;;;38.40;;
23384;SDS011;11865;45.394;10.978;2023-12-29T02:11:54;73.72;;;39.75;;
23384;SDS011;11865;45.394;10.978;2023-12-29T02:14:23;74.63;;;39.95;;
23384;SDS011;11865;45.394;10.978;2023-12-29T02:19:43;75.43;;;42.25;;
23384;SDS011;11865;45.394;10.978;2023-12-29T02:22:12;86.25;;;43.30;;
23384;SDS011;11865;45.394;10.978;2023-12-29T02:24:50;78.70;;;43.13;;
23384;SDS011;11865;45.394;10.978;2023-12-29T02:32:49;80.72;;;42.78;;
23384;SDS011;11865;45.394;10.978;2023-12-29T02:35:23;85.03;;;44.80;;
23384;SDS011;11865;45.394;10.978;2023-12-29T02:37:53;90.53;;;43.63;;
23384;SDS011;11865;45.394;10.978;2023-12-29T02:40:22;78.85;;;41.00;;
23384;SDS011;11865;45.394;10.978;2023-12-29T02:42:52;78.88;;;41.22;;
23384;SDS011;11865;45.394;10.978;2023-12-29T02:45:20;73.82;;;40.20;;
23384;SDS011;11865;45.394;10.978;2023-12-29T02:47:48;73.60;;;39.95;;
23384;SDS011;11865;45.394;10.978;2023-12-29T02:50:16;78.40;;;40.53;;
23384;SDS011;11865;45.394;10.978;2023-12-29T02:52:45;81.38;;;38.90;;
23384;SDS011;11865;45.394;10.978;2023-12-29T02:55:13;66.65;;;37.35;;
23384;SDS011;11865;45.394;10.978;2023-12-29T02:57:41;65.10;;;36.80;;
23384;SDS011;11865;45.394;10.978;2023-12-29T03:00:09;65.10;;;35.38;;
23384;SDS011;11865;45.394;10.978;2023-12-29T03:02:36;67.43;;;35.30;;
23384;SDS011;11865;45.394;10.978;2023-12-29T03:05:04;63.83;;;35.40;;
23384;SDS011;11865;45.394;10.978;2023-12-29T03:07:33;74.13;;;38.40;;
23384;SDS011;11865;45.394;10.978;2023-12-29T03:10:01;79.45;;;40.33;;
23384;SDS011;11865;45.394;10.978;2023-12-29T03:12:29;76.78;;;38.78;;
23384;SDS011;11865;45.394;10.978;2023-12-29T03:14:58;69.82;;;36.83;;
23384;SDS011;11865;45.394;10.978;2023-12-29T03:17:26;76.95;;;39.47;;
23384;SDS011;11865;45.394;10.978;2023-12-29T03:19:54;70.20;;;37.85;;
23384;SDS011;11865;45.394;10.978;2023-12-29T03:22:22;77.90;;;38.85;;
23384;SDS011;11865;45.394;10.978;2023-12-29T03:24:51;77.97;;;39.75;;
23384;SDS011;11865;45.394;10.978;2023-12-29T03:27:18;76.40;;;39.92;;
23384;SDS011;11865;45.394;10.978;2023-12-29T03:29:46;75.93;;;38.50;;
23384;SDS011;11865;45.394;10.978;2023-12-29T03:32:14;79.70;;;39.17;;
23384;SDS011;11865;45.394;10.978;2023-12-29T03:34:42;80.35;;;39.47;;
23384;SDS011;11865;45.394;10.978;2023-12-29T03:37:11;69.93;;;37.53;;
23384;SDS011;11865;45.394;10.978;2023-12-29T03:39:39;73.85;;;39.22;;
23384;SDS011;11865;45.394;10.978;2023-12-29T03:42:06;78.15;;;38.63;;
23384;SDS011;11865;45.394;10.978;2023-12-29T03:44:34;76.45;;;39.13;;
23384;SDS011;11865;45.394;10.978;2023-12-29T03:47:02;75.72;;;40.25;;
23384;SDS011;11865;45.394;10.978;2023-12-29T03:49:30;76.57;;;39.60;;
23384;SDS011;11865;45.394;10.978;2023-12-29T03:51:58;68.43;;;37.92;;
23384;SDS011;11865;45.394;10.978;2023-12-29T03:54:25;78.18;;;37.58;;
23384;SDS011;11865;45.394;10.978;2023-12-29T03:56:53;71.00;;;35.95;;
23384;SDS011;11865;45.394;10.978;2023-12-29T03:59:21;61.45;;;32.25;;
23384;SDS011;11865;45.394;10.978;2023-12-29T04:01:48;65.60;;;33.60;;
23384;SDS011;11865;45.394;10.978;2023-12-29T04:04:16;71.10;;;32.92;;
23384;SDS011;11865;45.394;10.978;2023-12-29T04:06:44;64.80;;;31.33;;
23384;SDS011;11865;45.394;10.978;2023-12-29T04:09:12;66.70;;;33.38;;
23384;SDS011;11865;45.394;10.978;2023-12-29T04:11:39;68.50;;;32.22;;
23384;SDS011;11865;45.394;10.978;2023-12-29T04:14:07;61.63;;;33.05;;
23384;SDS011;11865;45.394;10.978;2023-12-29T04:16:40;61.72;;;32.28;;
23384;SDS011;11865;45.394;10.978;2023-12-29T04:19:07;54.53;;;30.92;;
23384;SDS011;11865;45.394;10.978;2023-12-29T04:21:35;51.63;;;28.83;;
23384;SDS011;11865;45.394;10.978;2023-12-29T04:24:03;60.28;;;29.65;;
23384;SDS011;11865;45.394;10.978;2023-12-29T04:26:35;54.72;;;28.35;;
23384;SDS011;11865;45.394;10.978;2023-12-29T04:29:03;47.40;;;26.08;;
23384;SDS011;11865;45.394;10.978;2023-12-29T04:31:31;47.67;;;27.60;;
23384;SDS011;11865;45.394;10.978;2023-12-29T04:33:59;48.47;;;27.42;;
23384;SDS011;11865;45.394;10.978;2023-12-29T04:36:26;54.25;;;28.08;;
23384;SDS011;11865;45.394;10.978;2023-12-29T04:38:55;60.15;;;27.02;;
23384;SDS011;11865;45.394;10.978;2023-12-29T04:41:22;50.17;;;26.05;;
23384;SDS011;11865;45.394;10.978;2023-12-29T04:43:50;42.85;;;22.63;;
23384;SDS011;11865;45.394;10.978;2023-12-29T04:46:18;47.83;;;25.05;;
23384;SDS011;11865;45.394;10.978;2023-12-29T04:48:45;47.45;;;25.70;;
23384;SDS011;11865;45.394;10.978;2023-12-29T04:51:13;47.88;;;25.25;;
23384;SDS011;11865;45.394;10.978;2023-12-29T04:53:40;46.83;;;25.23;;
23384;SDS011;11865;45.394;10.978;2023-12-29T04:56:08;45.78;;;24.05;;
23384;SDS011;11865;45.394;10.978;2023-12-29T04:58:36;45.08;;;24.50;;
23384;SDS011;11865;45.394;10.978;2023-12-29T05:01:04;42.40;;;23.65;;
23384;SDS011;11865;45.394;10.978;2023-12-29T05:03:32;44.70;;;24.10;;
23384;SDS011;11865;45.394;10.978;2023-12-29T05:06:00;40.90;;;22.73;;
23384;SDS011;11865;45.394;10.978;2023-12-29T05:08:27;37.72;;;22.67;;
23384;SDS011;11865;45.394;10.978;2023-12-29T05:10:55;45.80;;;24.08;;
23384;SDS011;11865;45.394;10.978;2023-12-29T05:13:22;45.78;;;23.55;;
23384;SDS011;11865;45.394;10.978;2023-12-29T05:15:50;38.00;;;22.48;;
23384;SDS011;11865;45.394;10.978;2023-12-29T05:18:18;48.20;;;22.60;;
23384;SDS011;11865;45.394;10.978;2023-12-29T05:20:45;46.35;;;22.75;;
23384;SDS011;11865;45.394;10.978;2023-12-29T05:23:13;40.20;;;22.17;;
23384;SDS011;11865;45.394;10.978;2023-12-29T05:25:41;42.55;;;23.73;;
23384;SDS011;11865;45.394;10.978;2023-12-29T05:28:08;35.85;;;21.55;;
23384;SDS011;11865;45.394;10.978;2023-12-29T05:30:36;33.72;;;20.33;;
23384;SDS011;11865;45.394;10.978;2023-12-29T05:33:04;37.83;;;21.73;;
23384;SDS011;11865;45.394;10.978;2023-12-29T05:35:32;39.20;;;20.95;;
23384;SDS011;11865;45.394;10.978;2023-12-29T05:37:59;42.00;;;21.45;;
23384;SDS011;11865;45.394;10.978;2023-12-29T05:40:27;36.35;;;21.30;;
23384;SDS011;11865;45.394;10.978;2023-12-29T05:42:56;37.70;;;20.20;;
23384;SDS011;11865;45.394;10.978;2023-12-29T05:45:23;35.08;;;19.63;;
23384;SDS011;11865;45.394;10.978;2023-12-29T05:47:51;37.85;;;19.75;;
23384;SDS011;11865;45.394;10.978;2023-12-29T05:50:19;39.38;;;20.40;;
23384;SDS011;11865;45.394;10.978;2023-12-29T05:52:46;35.25;;;19.20;;
23384;SDS011;11865;45.394;10.978;2023-12-29T05:57:46;36.80;;;18.85;;
23384;SDS011;11865;45.394;10.978;2023-12-29T06:00:13;31.33;;;17.35;;
23384;SDS011;11865;45.394;10.978;2023-12-29T06:02:41;30.65;;;16.95;;
23384;SDS011;11865;45.394;10.978;2023-12-29T06:05:10;33.90;;;18.35;;
23384;SDS011;11865;45.394;10.978;2023-12-29T06:07:39;28.83;;;17.30;;
23384;SDS011;11865;45.394;10.978;2023-12-29T06:10:06;36.85;;;17.98;;
23384;SDS011;11865;45.394;10.978;2023-12-29T06:12:36;36.38;;;17.33;;
23384;SDS011;11865;45.394;10.978;2023-12-29T06:15:03;35.53;;;17.60;;
23384;SDS011;11865;45.394;10.978;2023-12-29T06:17:31;37.75;;;17.80;;
23384;SDS011;11865;45.394;10.978;2023-12-29T06:19:59;30.95;;;17.38;;
23384;SDS011;11865;45.394;10.978;2023-12-29T06:22:27;38.58;;;19.15;;
23384;SDS011;11865;45.394;10.978;2023-12-29T06:24:54;35.40;;;18.25;;
23384;SDS011;11865;45.394;10.978;2023-12-29T06:27:22;34.03;;;18.42;;
23384;SDS011;11865;45.394;10.978;2023-12-29T06:29:50;32.40;;;18.40;;
23384;SDS011;11865;45.394;10.978;2023-12-29T06:32:17;34.38;;;18.05;;
23384;SDS011;11865;45.394;10.978;2023-12-29T06:34:45;38.75;;;17.90;;
23384;SDS011;11865;45.394;10.978;2023-12-29T06:37:13;28.75;;;16.88;;
23384;SDS011;11865;45.394;10.978;2023-12-29T06:39:40;34.28;;;18.20;;
23384;SDS011;11865;45.394;10.978;2023-12-29T06:42:08;34.28;;;18.45;;
23384;SDS011;11865;45.394;10.978;2023-12-29T06:44:35;37.47;;;18.90;;
23384;SDS011;11865;45.394;10.978;2023-12-29T06:47:03;41.83;;;18.77;;
23384;SDS011;11865;45.394;10.978;2023-12-29T06:49:34;29.35;;;17.35;;
23384;SDS011;11865;45.394;10.978;2023-12-29T06:52:02;32.25;;;17.83;;
23384;SDS011;11865;45.394;10.978;2023-12-29T06:54:30;37.50;;;18.42;;
23384;SDS011;11865;45.394;10.978;2023-12-29T06:56:58;31.45;;;17.67;;
23384;SDS011;11865;45.394;10.978;2023-12-29T06:59:26;42.67;;;19.20;;
23384;SDS011;11865;45.394;10.978;2023-12-29T07:01:53;40.58;;;18.30;;
23384;SDS011;11865;45.394;10.978;2023-12-29T07:04:21;32.03;;;17.70;;
23384;SDS011;11865;45.394;10.978;2023-12-29T07:06:49;39.75;;;20.35;;
23384;SDS011;11865;45.394;10.978;2023-12-29T07:09:16;31.00;;;18.00;;
23384;SDS011;11865;45.394;10.978;2023-12-29T07:11:48;33.05;;;18.45;;
23384;SDS011;11865;45.394;10.978;2023-12-29T07:14:16;35.03;;;18.08;;
23384;SDS011;11865;45.394;10.978;2023-12-29T07:16:44;37.22;;;19.35;;
23384;SDS011;11865;45.394;10.978;2023-12-29T07:19:11;41.72;;;22.27;;
23384;SDS011;11865;45.394;10.978;2023-12-29T07:21:39;31.40;;;19.08;;
23384;SDS011;11865;45.394;10.978;2023-12-29T07:24:07;39.28;;;19.67;;
23384;SDS011;11865;45.394;10.978;2023-12-29T07:26:34;51.30;;;22.75;;
23384;SDS011;11865;45.394;10.978;2023-12-29T07:29:04;58.30;;;22.63;;
23384;SDS011;11865;45.394;10.978;2023-12-29T07:31:32;46.85;;;21.80;;
23384;SDS011;11865;45.394;10.978;2023-12-29T07:34:00;39.58;;;21.13;;
23384;SDS011;11865;45.394;10.978;2023-12-29T07:36:28;49.58;;;23.38;;
23384;SDS011;11865;45.394;10.978;2023-12-29T07:38:56;78.68;;;31.30;;
23384;SDS011;11865;45.394;10.978;2023-12-29T07:41:23;84.00;;;30.50;;
23384;SDS011;11865;45.394;10.978;2023-12-29T07:43:51;81.72;;;31.13;;
23384;SDS011;11865;45.394;10.978;2023-12-29T07:46:25;78.15;;;34.38;;
23384;SDS011;11865;45.394;10.978;2023-12-29T07:48:53;62.63;;;32.80;;
23384;SDS011;11865;45.394;10.978;2023-12-29T07:51:21;70.30;;;33.20;;
23384;SDS011;11865;45.394;10.978;2023-12-29T07:53:48;59.38;;;32.38;;
23384;SDS011;11865;45.394;10.978;2023-12-29T07:56:16;68.50;;;35.22;;
23384;SDS011;11865;45.394;10.978;2023-12-29T07:58:44;74.75;;;36.10;;
23384;SDS011;11865;45.394;10.978;2023-12-29T08:01:14;84.20;;;36.97;;
23384;SDS011;11865;45.394;10.978;2023-12-29T08:03:42;65.18;;;34.05;;
23384;SDS011;11865;45.394;10.978;2023-12-29T08:06:10;63.55;;;34.83;;
23384;SDS011;11865;45.394;10.978;2023-12-29T08:08:39;67.50;;;36.25;;
23384;SDS011;11865;45.394;10.978;2023-12-29T08:11:16;79.40;;;38.42;;
23384;SDS011;11865;45.394;10.978;2023-12-29T08:13:44;65.28;;;36.83;;
23384;SDS011;11865;45.394;10.978;2023-12-29T08:16:14;81.40;;;36.13;;
23384;SDS011;11865;45.394;10.978;2023-12-29T08:18:45;69.63;;;35.75;;
23384;SDS011;11865;45.394;10.978;2023-12-29T08:21:20;70.93;;;38.30;;
23384;SDS011;11865;45.394;10.978;2023-12-29T08:23:49;69.47;;;36.72;;
23384;SDS011;11865;45.394;10.978;2023-12-29T08:26:16;76.47;;;40.03;;
23384;SDS011;11865;45.394;10.978;2023-12-29T08:28:44;72.28;;;37.83;;
23384;SDS011;11865;45.394;10.978;2023-12-29T08:31:12;77.22;;;40.05;;
23384;SDS011;11865;45.394;10.978;2023-12-29T08:33:41;81.47;;;38.67;;
23384;SDS011;11865;45.394;10.978;2023-12-29T08:36:13;76.63;;;39.58;;
23384;SDS011;11865;45.394;10.978;2023-12-29T08:38:45;76.53;;;39.05;;
23384;SDS011;11865;45.394;10.978;2023-12-29T08:41:13;68.65;;;39.08;;
23384;SDS011;11865;45.394;10.978;2023-12-29T08:43:46;77.88;;;39.60;;
23384;SDS011;11865;45.394;10.978;2023-12-29T08:46:14;77.45;;;39.55;;
23384;SDS011;11865;45.394;10.978;2023-12-29T08:48:43;87.75;;;43.60;;
23384;SDS011;11865;45.394;10.978;2023-12-29T08:51:10;79.47;;;42.30;;
23384;SDS011;11865;45.394;10.978;2023-12-29T08:53:38;76.97;;;42.50;;
23384;SDS011;11865;45.394;10.978;2023-12-29T08:56:06;76.85;;;40.88;;
23384;SDS011;11865;45.394;10.978;2023-12-29T08:58:33;73.53;;;41.67;;
23384;SDS011;11865;45.394;10.978;2023-12-29T09:01:01;71.05;;;40.20;;
23384;SDS011;11865;45.394;10.978;2023-12-29T09:03:29;78.50;;;41.60;;
23384;SDS011;11865;45.394;10.978;2023-12-29T09:05:57;76.95;;;42.75;;
23384;SDS011;11865;45.394;10.978;2023-12-29T09:08:26;78.75;;;41.83;;
23384;SDS011;11865;45.394;10.978;2023-12-29T09:10:55;71.65;;;40.60;;
23384;SDS011;11865;45.394;10.978;2023-12-29T09:13:22;73.82;;;40.58;;
23384;SDS011;11865;45.394;10.978;2023-12-29T09:15:53;81.05;;;43.08;;
23384;SDS011;11865;45.394;10.978;2023-12-29T09:18:24;69.80;;;40.53;;
23384;SDS011;11865;45.394;10.978;2023-12-29T09:20:51;88.55;;;44.42;;
23384;SDS011;11865;45.394;10.978;2023-12-29T09:23:19;88.05;;;44.22;;
23384;SDS011;11865;45.394;10.978;2023-12-29T09:25:47;76.45;;;41.85;;
23384;SDS011;11865;45.394;10.978;2023-12-29T09:28:15;74.80;;;41.70;;
23384;SDS011;11865;45.394;10.978;2023-12-29T09:30:42;84.50;;;43.92;;
23384;SDS011;11865;45.394;10.978;2023-12-29T09:33:11;91.07;;;47.33;;
23384;SDS011;11865;45.394;10.978;2023-12-29T09:35:39;76.93;;;43.33;;
23384;SDS011;11865;45.394;10.978;2023-12-29T09:38:07;77.40;;;43.90;;
23384;SDS011;11865;45.394;10.978;2023-12-29T09:40:36;85.15;;;44.42;;
23384;SDS011;11865;45.394;10.978;2023-12-29T09:43:04;79.35;;;42.33;;
23384;SDS011;11865;45.394;10.978;2023-12-29T09:45:32;82.82;;;39.70;;
23384;SDS011;11865;45.394;10.978;2023-12-29T09:48:01;71.85;;;42.55;;
23384;SDS011;11865;45.394;10.978;2023-12-29T09:50:31;75.78;;;41.33;;
23384;SDS011;11865;45.394;10.978;2023-12-29T09:53:02;74.50;;;42.40;;
23384;SDS011;11865;45.394;10.978;2023-12-29T09:55:31;78.57;;;41.38;;
23384;SDS011;11865;45.394;10.978;2023-12-29T09:57:59;71.05;;;41.13;;
23384;SDS011;11865;45.394;10.978;2023-12-29T10:00:28;63.95;;;39.63;;
23384;SDS011;11865;45.394;10.978;2023-12-29T10:02:57;76.00;;;40.78;;
23384;SDS011;11865;45.394;10.978;2023-12-29T10:05:25;76.32;;;40.50;;
23384;SDS011;11865;45.394;10.978;2023-12-29T10:07:52;70.15;;;39.75;;
23384;SDS011;11865;45.394;10.978;2023-12-29T10:10:21;77.97;;;40.97;;
23384;SDS011;11865;45.394;10.978;2023-12-29T10:12:51;70.03;;;39.13;;
23384;SDS011;11865;45.394;10.978;2023-12-29T10:23:36;68.93;;;38.05;;
23384;SDS011;11865;45.394;10.978;2023-12-29T10:26:10;78.95;;;38.42;;
23384;SDS011;11865;45.394;10.978;2023-12-29T10:28:38;67.13;;;39.53;;
23384;SDS011;11865;45.394;10.978;2023-12-29T10:31:06;67.22;;;38.58;;
23384;SDS011;11865;45.394;10.978;2023-12-29T10:33:36;78.72;;;40.63;;
23384;SDS011;11865;45.394;10.978;2023-12-29T10:36:05;66.00;;;37.50;;
23384;SDS011;11865;45.394;10.978;2023-12-29T10:38:34;65.25;;;37.17;;
23384;SDS011;11865;45.394;10.978;2023-12-29T10:41:15;71.25;;;38.38;;
23384;SDS011;11865;45.394;10.978;2023-12-29T10:43:45;74.53;;;38.80;;
23384;SDS011;11865;45.394;10.978;2023-12-29T10:46:19;72.15;;;36.28;;
23384;SDS011;11865;45.394;10.978;2023-12-29T10:48:48;62.67;;;35.30;;
23384;SDS011;11865;45.394;10.978;2023-12-29T10:51:16;60.63;;;34.05;;
23384;SDS011;11865;45.394;10.978;2023-12-29T10:53:54;68.50;;;35.92;;
23384;SDS011;11865;45.394;10.978;2023-12-29T10:56:25;72.25;;;36.72;;
23384;SDS011;11865;45.394;10.978;2023-12-29T10:59:00;70.78;;;36.60;;
23384;SDS011;11865;45.394;10.978;2023-12-29T11:01:32;75.32;;;38.22;;
23384;SDS011;11865;45.394;10.978;2023-12-29T11:04:04;67.88;;;37.60;;
23384;SDS011;11865;45.394;10.978;2023-12-29T11:06:40;64.55;;;36.78;;
23384;SDS011;11865;45.394;10.978;2023-12-29T11:09:10;83.80;;;37.75;;
23384;SDS011;11865;45.394;10.978;2023-12-29T11:11:38;68.28;;;36.38;;
23384;SDS011;11865;45.394;10.978;2023-12-29T11:14:06;70.93;;;36.22;;
23384;SDS011;11865;45.394;10.978;2023-12-29T11:16:37;63.40;;;35.83;;
23384;SDS011;11865;45.394;10.978;2023-12-29T11:19:06;63.40;;;34.47;;
23384;SDS011;11865;45.394;10.978;2023-12-29T11:21:37;70.83;;;35.50;;
23384;SDS011;11865;45.394;10.978;2023-12-29T11:24:08;60.28;;;33.92;;
23384;SDS011;11865;45.394;10.978;2023-12-29T11:26:37;57.35;;;33.55;;
23384;SDS011;11865;45.394;10.978;2023-12-29T11:29:05;57.17;;;32.17;;
23384;SDS011;11865;45.394;10.978;2023-12-29T11:31:35;62.58;;;32.47;;
23384;SDS011;11865;45.394;10.978;2023-12-29T11:34:06;65.78;;;32.63;;
23384;SDS011;11865;45.394;10.978;2023-12-29T11:36:40;78.88;;;32.88;;
23384;SDS011;11865;45.394;10.978;2023-12-29T11:45:23;54.28;;;29.25;;
23384;SDS011;11865;45.394;10.978;2023-12-29T11:47:53;53.10;;;30.90;;
23384;SDS011;11865;45.394;10.978;2023-12-29T11:50:29;53.58;;;30.23;;
23384;SDS011;11865;45.394;10.978;2023-12-29T11:52:59;58.80;;;32.45;;
23384;SDS011;11865;45.394;10.978;2023-12-29T11:55:28;56.03;;;31.08;;
23384;SDS011;11865;45.394;10.978;2023-12-29T11:57:57;52.58;;;29.88;;
23384;SDS011;11865;45.394;10.978;2023-12-29T12:00:41;57.90;;;30.33;;
23384;SDS011;11865;45.394;10.978;2023-12-29T12:03:14;52.95;;;30.88;;
23384;SDS011;11865;45.394;10.978;2023-12-29T12:05:49;55.45;;;30.10;;
23384;SDS011;11865;45.394;10.978;2023-12-29T12:11:41;56.88;;;30.90;;
23384;SDS011;11865;45.394;10.978;2023-12-29T12:13:56;55.25;;;30.85;;
23384;SDS011;11865;45.394;10.978;2023-12-29T12:19:17;56.15;;;30.63;;
23384;SDS011;11865;45.394;10.978;2023-12-29T12:21:47;59.28;;;30.90;;
23384;SDS011;11865;45.394;10.978;2023-12-29T12:24:18;62.10;;;31.42;;
23384;SDS011;11865;45.394;10.978;2023-12-29T12:26:46;56.65;;;30.98;;
23384;SDS011;11865;45.394;10.978;2023-12-29T12:29:14;54.38;;;30.17;;
23384;SDS011;11865;45.394;10.978;2023-12-29T12:31:51;53.72;;;31.70;;
23384;SDS011;11865;45.394;10.978;2023-12-29T12:34:22;58.42;;;31.67;;
23384;SDS011;11865;45.394;10.978;2023-12-29T12:36:52;52.72;;;30.13;;
23384;SDS011;11865;45.394;10.978;2023-12-29T12:39:22;49.70;;;29.38;;
23384;SDS011;11865;45.394;10.978;2023-12-29T12:41:50;52.03;;;30.90;;
23384;SDS011;11865;45.394;10.978;2023-12-29T12:44:18;58.28;;;31.30;;
23384;SDS011;11865;45.394;10.978;2023-12-29T12:49:14;52.33;;;31.52;;
23384;SDS011;11865;45.394;10.978;2023-12-29T12:51:43;56.60;;;30.33;;
23384;SDS011;11865;45.394;10.978;2023-12-29T12:54:11;52.75;;;31.95;;
23384;SDS011;11865;45.394;10.978;2023-12-29T12:56:43;51.55;;;30.85;;
23384;SDS011;11865;45.394;10.978;2023-12-29T12:59:12;52.45;;;30.63;;
23384;SDS011;11865;45.394;10.978;2023-12-29T13:01:40;53.80;;;30.35;;
23384;SDS011;11865;45.394;10.978;2023-12-29T13:04:09;57.92;;;32.10;;
23384;SDS011;11865;45.394;10.978;2023-12-29T13:06:41;54.70;;;30.92;;
23384;SDS011;11865;45.394;10.978;2023-12-29T13:09:17;61.28;;;32.35;;
23384;SDS011;11865;45.394;10.978;2023-12-29T13:11:46;64.63;;;33.13;;
23384;SDS011;11865;45.394;10.978;2023-12-29T13:14:23;58.00;;;32.15;;
23384;SDS011;11865;45.394;10.978;2023-12-29T13:16:52;55.55;;;31.17;;
23384;SDS011;11865;45.394;10.978;2023-12-29T13:19:21;54.20;;;30.98;;
23384;SDS011;11865;45.394;10.978;2023-12-29T13:21:55;51.63;;;31.13;;
23384;SDS011;11865;45.394;10.978;2023-12-29T13:24:24;56.50;;;32.17;;
23384;SDS011;11865;45.394;10.978;2023-12-29T13:26:57;53.83;;;30.83;;
23384;SDS011;11865;45.394;10.978;2023-12-29T13:29:29;52.08;;;31.33;;
23384;SDS011;11865;45.394;10.978;2023-12-29T13:34:53;56.63;;;33.17;;
23384;SDS011;11865;45.394;10.978;2023-12-29T13:37:31;59.28;;;32.92;;
23384;SDS011;11865;45.394;10.978;2023-12-29T13:42:42;57.10;;;34.10;;
23384;SDS011;11865;45.394;10.978;2023-12-29T13:45:12;59.13;;;32.97;;
23384;SDS011;11865;45.394;10.978;2023-12-29T13:47:42;69.32;;;34.35;;
23384;SDS011;11865;45.394;10.978;2023-12-29T13:50:10;58.15;;;34.40;;
23384;SDS011;11865;45.394;10.978;2023-12-29T13:52:38;63.40;;;36.08;;
23384;SDS011;11865;45.394;10.978;2023-12-29T13:55:07;56.83;;;34.10;;
23384;SDS011;11865;45.394;10.978;2023-12-29T13:57:35;60.90;;;35.30;;
23384;SDS011;11865;45.394;10.978;2023-12-29T14:00:16;57.42;;;35.42;;
23384;SDS011;11865;45.394;10.978;2023-12-29T14:02:44;58.47;;;35.65;;
23384;SDS011;11865;45.394;10.978;2023-12-29T14:07:55;63.95;;;35.47;;
23384;SDS011;11865;45.394;10.978;2023-12-29T14:10:33;69.95;;;37.47;;
23384;SDS011;11865;45.394;10.978;2023-12-29T14:13:08;62.78;;;36.72;;
23384;SDS011;11865;45.394;10.978;2023-12-29T14:15:40;66.78;;;39.47;;
23384;SDS011;11865;45.394;10.978;2023-12-29T14:20:39;69.32;;;39.13;;
23384;SDS011;11865;45.394;10.978;2023-12-29T14:23:07;68.38;;;39.63;;
23384;SDS011;11865;45.394;10.978;2023-12-29T14:25:36;65.80;;;39.67;;
23384;SDS011;11865;45.394;10.978;2023-12-29T14:28:13;66.68;;;37.90;;
23384;SDS011;11865;45.394;10.978;2023-12-29T14:30:45;71.85;;;40.10;;
23384;SDS011;11865;45.394;10.978;2023-12-29T14:33:13;62.17;;;39.17;;
23384;SDS011;11865;45.394;10.978;2023-12-29T14:35:41;64.70;;;39.35;;
23384;SDS011;11865;45.394;10.978;2023-12-29T14:38:08;64.32;;;38.78;;
23384;SDS011;11865;45.394;10.978;2023-12-29T14:40:39;69.50;;;39.95;;
23384;SDS011;11865;45.394;10.978;2023-12-29T14:43:07;61.25;;;39.72;;
23384;SDS011;11865;45.394;10.978;2023-12-29T14:45:34;71.68;;;39.95;;
23384;SDS011;11865;45.394;10.978;2023-12-29T14:48:02;65.40;;;39.92;;
23384;SDS011;11865;45.394;10.978;2023-12-29T14:50:33;68.70;;;40.05;;
23384;SDS011;11865;45.394;10.978;2023-12-29T14:53:04;69.30;;;41.15;;
23384;SDS011;11865;45.394;10.978;2023-12-29T14:55:32;75.13;;;41.33;;
23384;SDS011;11865;45.394;10.978;2023-12-29T14:57:59;68.78;;;40.85;;
23384;SDS011;11865;45.394;10.978;2023-12-29T15:00:27;64.45;;;38.28;;
23384;SDS011;11865;45.394;10.978;2023-12-29T15:02:55;64.47;;;38.55;;